AAL610 KLAS-KFLL
Flight info
| Callsign | AAL610 |
|---|---|
| Flight time | N/A |
| Altitude | 33000 |
| Route | NIITZ4 SSKEE INW CME UNNOS/N0445F350 GECKE JETDE JCT SAT EATIT MULLT LEV Y290 DOWRY TEEKY4 |
| Aircraft | B738/M-SDE2E3FGHIRWXY/LB1 |
Departure
| Time | 2026-05-04 10:51 |
|---|---|
| Airport | Harry Reid International Airport (KLAS) |
Arrival
| Time | N/A |
|---|---|
| Airport | Fort Lauderdale Hollywood International Airport (KFLL) |
| Time | Latitude | Longitude | Altitude | Speed | Heading |
|---|---|---|---|---|---|
| 2026-05-04 10:45 | 36.07638 | -115.16839 | 2176 ft | 0 kts | 91° |
| 2026-05-04 10:51 | 36.07197 | -115.10891 | 4074 ft | 140 kts | 117° |
| 2026-05-04 10:52 | 36.06725 | -115.09704 | 3998 ft | 179 kts | 122° |
| 2026-05-04 10:52 | 36.06001 | -115.08150 | 3465 ft | 232 kts | 123° |
| 2026-05-04 10:52 | 36.05164 | -115.06366 | 3575 ft | 238 kts | 119° |
| 2026-05-04 10:54 | 36.01294 | -114.92086 | 5276 ft | 271 kts | 112° |
| 2026-05-04 10:54 | 36.00674 | -114.89906 | 6064 ft | 267 kts | 112° |
| 2026-05-04 10:56 | 35.96133 | -114.74358 | 10218 ft | 284 kts | 115° |
| 2026-05-04 10:56 | 35.95433 | -114.71996 | 10345 ft | 303 kts | 115° |
| 2026-05-04 10:56 | 35.94688 | -114.69487 | 10496 ft | 320 kts | 114° |
| 2026-05-04 10:57 | 35.93909 | -114.66857 | 10806 ft | 331 kts | 114° |
| 2026-05-04 10:57 | 35.93116 | -114.64163 | 11309 ft | 335 kts | 114° |
| 2026-05-04 10:57 | 35.92317 | -114.61448 | 11837 ft | 338 kts | 114° |
| 2026-05-04 10:57 | 35.91505 | -114.58701 | 12359 ft | 343 kts | 114° |
| 2026-05-04 10:58 | 35.90694 | -114.55964 | 12893 ft | 346 kts | 114° |
| 2026-05-04 10:58 | 35.89909 | -114.53144 | 13400 ft | 351 kts | 110° |
| 2026-05-04 10:58 | 35.89435 | -114.50154 | 13828 ft | 361 kts | 96° |
| 2026-05-04 10:58 | 35.89544 | -114.47031 | 14274 ft | 368 kts | 88° |
| 2026-05-04 10:59 | 35.89814 | -114.43866 | 14662 ft | 374 kts | 88° |
| 2026-05-04 10:59 | 35.89999 | -114.40647 | 15046 ft | 378 kts | 92° |
| 2026-05-04 10:59 | 35.89984 | -114.37401 | 15454 ft | 381 kts | 96° |
| 2026-05-04 10:59 | 35.89867 | -114.34166 | 15859 ft | 385 kts | 97° |
| 2026-05-04 11:00 | 35.89741 | -114.30855 | 16287 ft | 389 kts | 96° |
| 2026-05-04 11:01 | 35.89412 | -114.06555 | 18900 ft | 418 kts | 94° |
| 2026-05-04 11:02 | 35.89385 | -114.02956 | 19242 ft | 422 kts | 94° |
| 2026-05-04 11:02 | 35.89356 | -113.99368 | 19591 ft | 426 kts | 94° |
| 2026-05-04 11:05 | 35.88268 | -113.45563 | 23920 ft | 469 kts | 101° |
| 2026-05-04 11:06 | 35.87790 | -113.41578 | 24193 ft | 470 kts | 105° |
| 2026-05-04 11:06 | 35.87150 | -113.37644 | 24481 ft | 469 kts | 108° |
| 2026-05-04 11:06 | 35.86409 | -113.33702 | 24584 ft | 475 kts | 108° |
| 2026-05-04 11:06 | 35.85666 | -113.29777 | 24808 ft | 476 kts | 108° |
| 2026-05-04 11:08 | 35.81225 | -113.01086 | 26457 ft | 497 kts | 105° |
| 2026-05-04 11:10 | 35.76784 | -112.71321 | 27771 ft | 515 kts | 106° |
| 2026-05-04 11:12 | 35.72107 | -112.40587 | 29021 ft | 531 kts | 107° |
| 2026-05-04 11:12 | 35.71419 | -112.36113 | 29207 ft | 533 kts | 107° |
| 2026-05-04 11:12 | 35.70726 | -112.31623 | 29388 ft | 535 kts | 107° |
| 2026-05-04 11:12 | 35.70029 | -112.27114 | 29566 ft | 537 kts | 107° |
| 2026-05-04 11:13 | 35.69329 | -112.22595 | 29734 ft | 539 kts | 107° |
| 2026-05-04 11:13 | 35.68633 | -112.18116 | 29891 ft | 541 kts | 107° |
| 2026-05-04 11:13 | 35.67924 | -112.13563 | 30054 ft | 543 kts | 107° |
| 2026-05-04 11:13 | 35.67211 | -112.08997 | 30241 ft | 543 kts | 107° |
| 2026-05-04 11:14 | 35.66498 | -112.04442 | 30456 ft | 542 kts | 107° |
| 2026-05-04 11:14 | 35.65786 | -111.99899 | 30666 ft | 541 kts | 107° |
| 2026-05-04 11:14 | 35.65070 | -111.95354 | 30833 ft | 542 kts | 107° |
| 2026-05-04 11:16 | 35.60023 | -111.63622 | 31929 ft | 541 kts | 107° |
| 2026-05-04 11:16 | 35.59295 | -111.59091 | 32100 ft | 540 kts | 107° |
| 2026-05-04 11:16 | 35.58566 | -111.54562 | 32275 ft | 540 kts | 107° |
| 2026-05-04 11:17 | 35.57836 | -111.50042 | 32417 ft | 540 kts | 107° |
| 2026-05-04 11:17 | 35.57103 | -111.45517 | 32551 ft | 540 kts | 107° |
| 2026-05-04 11:19 | 35.51935 | -111.13911 | 33123 ft | 542 kts | 107° |
| 2026-05-04 11:19 | 35.51197 | -111.09439 | 33127 ft | 542 kts | 107° |
| 2026-05-04 11:19 | 35.49694 | -111.00363 | 33139 ft | 543 kts | 107° |
| 2026-05-04 11:20 | 35.48184 | -110.91286 | 33130 ft | 543 kts | 107° |
| 2026-05-04 11:20 | 35.46667 | -110.82222 | 33135 ft | 543 kts | 107° |
| 2026-05-04 11:22 | 35.40543 | -110.46051 | 33131 ft | 543 kts | 107° |
| 2026-05-04 11:23 | 35.38992 | -110.37004 | 33141 ft | 543 kts | 107° |
| 2026-05-04 11:25 | 35.33517 | -110.05388 | 33129 ft | 543 kts | 107° |
| 2026-05-04 11:25 | 35.31935 | -109.96351 | 33126 ft | 543 kts | 107° |
| 2026-05-04 11:27 | 35.24731 | -109.55705 | 33118 ft | 545 kts | 107° |
| 2026-05-04 11:28 | 35.23117 | -109.46713 | 33109 ft | 545 kts | 106° |
| 2026-05-04 11:28 | 35.21486 | -109.37663 | 33117 ft | 545 kts | 107° |
| 2026-05-04 11:29 | 35.19846 | -109.28609 | 33164 ft | 545 kts | 107° |
| 2026-05-04 11:29 | 35.18201 | -109.19568 | 33232 ft | 545 kts | 107° |
| 2026-05-04 11:31 | 35.12394 | -108.87970 | 33414 ft | 545 kts | 106° |
| 2026-05-04 11:33 | 35.06517 | -108.56476 | 33130 ft | 544 kts | 106° |
| 2026-05-04 11:33 | 35.04822 | -108.47486 | 33046 ft | 544 kts | 106° |
| 2026-05-04 11:34 | 35.03120 | -108.38494 | 33059 ft | 544 kts | 106° |
| 2026-05-04 11:34 | 35.01410 | -108.29502 | 33069 ft | 544 kts | 106° |
| 2026-05-04 11:35 | 34.99705 | -108.20570 | 33143 ft | 544 kts | 106° |
| 2026-05-04 11:35 | 34.97983 | -108.11587 | 33207 ft | 544 kts | 106° |
| 2026-05-04 11:36 | 34.96255 | -108.02614 | 33239 ft | 544 kts | 106° |
| 2026-05-04 11:36 | 34.94520 | -107.93640 | 33256 ft | 543 kts | 106° |
| 2026-05-04 11:37 | 34.92783 | -107.84688 | 33240 ft | 543 kts | 106° |
| 2026-05-04 11:37 | 34.91050 | -107.75804 | 33195 ft | 543 kts | 106° |
| 2026-05-04 11:38 | 34.89298 | -107.66858 | 33139 ft | 543 kts | 106° |
| 2026-05-04 11:38 | 34.87540 | -107.57916 | 33111 ft | 542 kts | 106° |
| 2026-05-04 11:39 | 34.85777 | -107.48991 | 33119 ft | 543 kts | 106° |
| 2026-05-04 11:41 | 34.79577 | -107.17871 | 33110 ft | 541 kts | 106° |
| 2026-05-04 11:41 | 34.77788 | -107.08976 | 33105 ft | 541 kts | 107° |
| 2026-05-04 11:42 | 34.75995 | -107.00098 | 33126 ft | 541 kts | 107° |
| 2026-05-04 11:42 | 34.74205 | -106.91269 | 33137 ft | 542 kts | 107° |
| 2026-05-04 11:43 | 34.72390 | -106.82354 | 33138 ft | 544 kts | 107° |
| 2026-05-04 11:43 | 34.70565 | -106.73421 | 33152 ft | 545 kts | 107° |
| 2026-05-04 11:44 | 34.68730 | -106.64478 | 33163 ft | 547 kts | 107° |
| 2026-05-04 11:44 | 34.66893 | -106.55562 | 33159 ft | 548 kts | 107° |
| 2026-05-04 11:45 | 34.65033 | -106.46565 | 33171 ft | 550 kts | 106° |
| 2026-05-04 11:45 | 34.63158 | -106.37541 | 33157 ft | 550 kts | 106° |
| 2026-05-04 11:46 | 34.61283 | -106.28542 | 33152 ft | 550 kts | 106° |
| 2026-05-04 11:46 | 34.59402 | -106.19553 | 33163 ft | 549 kts | 106° |
| 2026-05-04 11:47 | 34.57529 | -106.10644 | 33166 ft | 548 kts | 106° |
| 2026-05-04 11:47 | 34.55642 | -106.01696 | 33167 ft | 547 kts | 106° |
| 2026-05-04 11:48 | 34.53751 | -105.92769 | 33172 ft | 546 kts | 106° |
| 2026-05-04 11:48 | 34.51856 | -105.83855 | 33166 ft | 546 kts | 106° |
| 2026-05-04 11:49 | 34.49970 | -105.75017 | 33160 ft | 545 kts | 106° |
| 2026-05-04 11:49 | 34.48066 | -105.66130 | 33156 ft | 544 kts | 106° |
| 2026-05-04 11:50 | 34.46161 | -105.57272 | 33158 ft | 543 kts | 106° |
| 2026-05-04 11:50 | 34.44252 | -105.48429 | 33169 ft | 542 kts | 106° |
| 2026-05-04 11:51 | 34.42337 | -105.39595 | 33135 ft | 542 kts | 106° |
| 2026-05-04 11:51 | 34.40434 | -105.30844 | 33149 ft | 541 kts | 106° |
| 2026-05-04 11:52 | 34.38514 | -105.22050 | 33130 ft | 540 kts | 106° |
| 2026-05-04 11:52 | 34.36588 | -105.13263 | 33125 ft | 540 kts | 106° |
| 2026-05-04 11:53 | 34.34658 | -105.04487 | 33140 ft | 539 kts | 106° |
| 2026-05-04 11:53 | 34.32724 | -104.95728 | 33134 ft | 539 kts | 106° |
| 2026-05-04 11:55 | 34.24932 | -104.60758 | 33119 ft | 543 kts | 106° |
| 2026-05-04 11:56 | 34.22950 | -104.51944 | 33117 ft | 544 kts | 106° |
| 2026-05-04 11:56 | 34.20956 | -104.43105 | 33114 ft | 546 kts | 106° |
| 2026-05-04 11:57 | 34.18948 | -104.34241 | 33109 ft | 548 kts | 106° |
| 2026-05-04 11:57 | 34.16931 | -104.25365 | 33106 ft | 549 kts | 106° |
| 2026-05-04 11:58 | 34.14914 | -104.16524 | 33102 ft | 550 kts | 106° |
| 2026-05-04 11:58 | 34.12874 | -104.07619 | 33099 ft | 551 kts | 106° |
| 2026-05-04 11:59 | 34.10825 | -103.98702 | 33099 ft | 551 kts | 106° |
| 2026-05-04 11:59 | 34.08773 | -103.89804 | 33100 ft | 550 kts | 106° |
| 2026-05-04 12:00 | 34.06729 | -103.80975 | 33096 ft | 550 kts | 106° |
| 2026-05-04 12:00 | 34.04671 | -103.72115 | 33093 ft | 548 kts | 106° |
| 2026-05-04 12:01 | 34.02612 | -103.63285 | 33098 ft | 546 kts | 106° |
| 2026-05-04 12:02 | 33.95422 | -103.32686 | 33097 ft | 542 kts | 106° |
| 2026-05-04 12:03 | 33.93356 | -103.23964 | 33098 ft | 541 kts | 106° |
| 2026-05-04 12:03 | 33.91285 | -103.15249 | 33096 ft | 541 kts | 106° |
| 2026-05-04 12:04 | 33.89222 | -103.06597 | 33101 ft | 542 kts | 106° |
| 2026-05-04 12:04 | 33.87135 | -102.97873 | 33100 ft | 543 kts | 106° |
| 2026-05-04 12:05 | 33.85037 | -102.89135 | 33103 ft | 544 kts | 106° |
| 2026-05-04 12:05 | 33.82928 | -102.80384 | 33102 ft | 545 kts | 106° |
| 2026-05-04 12:06 | 33.80811 | -102.71627 | 33109 ft | 546 kts | 106° |
| 2026-05-04 12:06 | 33.78697 | -102.62911 | 33126 ft | 547 kts | 106° |
| 2026-05-04 12:07 | 33.76559 | -102.54126 | 33150 ft | 548 kts | 106° |
| 2026-05-04 12:07 | 33.74411 | -102.45333 | 33177 ft | 548 kts | 106° |
| 2026-05-04 12:08 | 33.72257 | -102.36544 | 33189 ft | 549 kts | 106° |
| 2026-05-04 12:08 | 33.70112 | -102.27820 | 33192 ft | 548 kts | 106° |
| 2026-05-04 12:09 | 33.67945 | -102.19041 | 33174 ft | 548 kts | 106° |
| 2026-05-04 12:09 | 33.65778 | -102.10285 | 33155 ft | 547 kts | 106° |
| 2026-05-04 12:10 | 33.63605 | -102.01537 | 33187 ft | 547 kts | 106° |
| 2026-05-04 12:10 | 33.61794 | -101.94271 | 33204 ft | 547 kts | 106° |
| 2026-05-04 12:11 | 33.59258 | -101.84123 | 33217 ft | 546 kts | 106° |
| 2026-05-04 12:11 | 33.57069 | -101.75400 | 33207 ft | 546 kts | 106° |
| 2026-05-04 12:12 | 33.54877 | -101.66692 | 33176 ft | 546 kts | 106° |
| 2026-05-04 12:12 | 33.53050 | -101.59455 | 33158 ft | 546 kts | 106° |
| 2026-05-04 12:14 | 33.44205 | -101.24694 | 33117 ft | 547 kts | 106° |
| 2026-05-04 12:15 | 33.41971 | -101.15985 | 33120 ft | 547 kts | 106° |
| 2026-05-04 12:15 | 33.39364 | -101.05856 | 33115 ft | 548 kts | 107° |
| 2026-05-04 12:16 | 33.37492 | -100.98606 | 33126 ft | 549 kts | 106° |
| 2026-05-04 12:16 | 33.35234 | -100.89892 | 33119 ft | 549 kts | 106° |
| 2026-05-04 12:17 | 33.32967 | -100.81167 | 33128 ft | 550 kts | 107° |
| 2026-05-04 12:17 | 33.30693 | -100.72445 | 33123 ft | 550 kts | 107° |
| 2026-05-04 12:18 | 33.28411 | -100.63718 | 33129 ft | 550 kts | 107° |
| 2026-05-04 12:18 | 33.26141 | -100.55064 | 33125 ft | 550 kts | 107° |
| 2026-05-04 12:19 | 33.23847 | -100.46348 | 33124 ft | 550 kts | 107° |
| 2026-05-04 12:19 | 33.21547 | -100.37639 | 33127 ft | 550 kts | 107° |
| 2026-05-04 12:20 | 33.19240 | -100.28931 | 33128 ft | 550 kts | 106° |
| 2026-05-04 12:20 | 33.16944 | -100.20287 | 33138 ft | 550 kts | 106° |
| 2026-05-04 12:21 | 33.14627 | -100.11596 | 33137 ft | 550 kts | 106° |
| 2026-05-04 12:21 | 33.12305 | -100.02909 | 33146 ft | 549 kts | 106° |
| 2026-05-04 12:22 | 33.09978 | -99.94234 | 33149 ft | 549 kts | 106° |
| 2026-05-04 12:22 | 33.07647 | -99.85570 | 33150 ft | 549 kts | 106° |
| 2026-05-04 12:23 | 33.05326 | -99.76967 | 33154 ft | 549 kts | 106° |
| 2026-05-04 12:23 | 33.02983 | -99.68314 | 33153 ft | 548 kts | 106° |
| 2026-05-04 12:24 | 33.00638 | -99.59678 | 33158 ft | 548 kts | 106° |
| 2026-05-04 12:24 | 32.98285 | -99.51038 | 33162 ft | 548 kts | 106° |
| 2026-05-04 12:25 | 32.95926 | -99.42404 | 33161 ft | 548 kts | 106° |
| 2026-05-04 12:25 | 32.93575 | -99.33824 | 33166 ft | 549 kts | 106° |
| 2026-05-04 12:26 | 32.91205 | -99.25199 | 33173 ft | 549 kts | 106° |
| 2026-05-04 12:26 | 32.88827 | -99.16576 | 33191 ft | 548 kts | 106° |
| 2026-05-04 12:27 | 32.86443 | -99.07955 | 33210 ft | 548 kts | 106° |
| 2026-05-04 12:27 | 32.84072 | -98.99407 | 33219 ft | 548 kts | 106° |
| 2026-05-04 12:28 | 32.81680 | -98.90807 | 33232 ft | 548 kts | 106° |
| 2026-05-04 12:28 | 32.79282 | -98.82213 | 33232 ft | 548 kts | 106° |
| 2026-05-04 12:29 | 32.76912 | -98.73746 | 33227 ft | 547 kts | 106° |
| 2026-05-04 12:29 | 32.74488 | -98.65109 | 33214 ft | 547 kts | 106° |
| 2026-05-04 12:30 | 32.72074 | -98.56533 | 33209 ft | 547 kts | 106° |
| 2026-05-04 12:30 | 32.69656 | -98.47968 | 33206 ft | 547 kts | 106° |
| 2026-05-04 12:31 | 32.67230 | -98.39401 | 33214 ft | 547 kts | 106° |
| 2026-05-04 12:31 | 32.64801 | -98.30850 | 33228 ft | 547 kts | 106° |
| 2026-05-04 12:32 | 32.61165 | -98.18092 | 33233 ft | 546 kts | 106° |
| 2026-05-04 12:33 | 32.58725 | -98.09564 | 33234 ft | 546 kts | 106° |
| 2026-05-04 12:33 | 32.56279 | -98.01040 | 33246 ft | 546 kts | 106° |
| 2026-05-04 12:34 | 32.53825 | -97.92514 | 33263 ft | 546 kts | 106° |
| 2026-05-04 12:34 | 32.51386 | -97.84061 | 33257 ft | 546 kts | 106° |
| 2026-05-04 12:35 | 32.48926 | -97.75561 | 33260 ft | 546 kts | 106° |
| 2026-05-04 12:35 | 32.46457 | -97.67056 | 33260 ft | 546 kts | 106° |
| 2026-05-04 12:36 | 32.43984 | -97.58561 | 33246 ft | 545 kts | 106° |
| 2026-05-04 12:36 | 32.41512 | -97.50090 | 33247 ft | 545 kts | 106° |
| 2026-05-04 12:37 | 32.39048 | -97.41675 | 33252 ft | 544 kts | 106° |
| 2026-05-04 12:37 | 32.36565 | -97.33217 | 33252 ft | 544 kts | 106° |
| 2026-05-04 12:38 | 32.34080 | -97.24775 | 33253 ft | 543 kts | 106° |
| 2026-05-04 12:38 | 32.31591 | -97.16343 | 33257 ft | 543 kts | 106° |
| 2026-05-04 12:39 | 32.29114 | -97.07977 | 33292 ft | 542 kts | 106° |
| 2026-05-04 12:39 | 32.26621 | -96.99577 | 33296 ft | 542 kts | 106° |
| 2026-05-04 12:40 | 32.24122 | -96.91183 | 33297 ft | 542 kts | 106° |
| 2026-05-04 12:40 | 32.21618 | -96.82793 | 33297 ft | 541 kts | 106° |
| 2026-05-04 12:41 | 32.19110 | -96.74414 | 33302 ft | 541 kts | 106° |
| 2026-05-04 12:41 | 32.16617 | -96.66110 | 33311 ft | 540 kts | 107° |
| 2026-05-04 12:42 | 32.14103 | -96.57757 | 33320 ft | 540 kts | 107° |
| 2026-05-04 12:42 | 32.11587 | -96.49421 | 33337 ft | 539 kts | 107° |
| 2026-05-04 12:43 | 32.09068 | -96.41099 | 33332 ft | 539 kts | 107° |
| 2026-05-04 12:43 | 32.06563 | -96.32842 | 33332 ft | 538 kts | 107° |
| 2026-05-04 12:44 | 32.04039 | -96.24546 | 33336 ft | 537 kts | 107° |
| 2026-05-04 12:44 | 32.01511 | -96.16260 | 33322 ft | 537 kts | 107° |
| 2026-05-04 12:45 | 31.98981 | -96.07989 | 33324 ft | 536 kts | 107° |
| 2026-05-04 12:45 | 31.96463 | -95.99779 | 33330 ft | 536 kts | 107° |
| 2026-05-04 12:46 | 31.93928 | -95.91534 | 33334 ft | 536 kts | 107° |
| 2026-05-04 12:46 | 31.91387 | -95.83294 | 33344 ft | 535 kts | 107° |
| 2026-05-04 12:47 | 31.88843 | -95.75068 | 33351 ft | 535 kts | 107° |
| 2026-05-04 12:47 | 31.86296 | -95.66848 | 33355 ft | 534 kts | 107° |
| 2026-05-04 12:48 | 31.83745 | -95.58643 | 33348 ft | 534 kts | 107° |
| 2026-05-04 12:48 | 31.81213 | -95.50516 | 33339 ft | 533 kts | 107° |
| 2026-05-04 12:49 | 31.78661 | -95.42348 | 33324 ft | 532 kts | 107° |
| 2026-05-04 12:49 | 31.76107 | -95.34193 | 33326 ft | 531 kts | 107° |
| 2026-05-04 12:50 | 31.73554 | -95.26063 | 33326 ft | 530 kts | 107° |
| 2026-05-04 12:50 | 31.71021 | -95.18018 | 33330 ft | 529 kts | 107° |
| 2026-05-04 12:51 | 31.68462 | -95.09910 | 33333 ft | 528 kts | 107° |
| 2026-05-04 12:51 | 31.65905 | -95.01831 | 33341 ft | 528 kts | 108° |
| 2026-05-04 12:52 | 31.63348 | -94.93770 | 33367 ft | 527 kts | 108° |
| 2026-05-04 12:52 | 31.60804 | -94.85769 | 33373 ft | 527 kts | 108° |
| 2026-05-04 12:53 | 31.58240 | -94.77728 | 33371 ft | 526 kts | 108° |
| 2026-05-04 12:53 | 31.55674 | -94.69699 | 33372 ft | 526 kts | 108° |
| 2026-05-04 12:54 | 31.53105 | -94.61681 | 33374 ft | 525 kts | 108° |
| 2026-05-04 12:54 | 31.50533 | -94.53676 | 33364 ft | 524 kts | 108° |
| 2026-05-04 12:55 | 31.47979 | -94.45745 | 33373 ft | 524 kts | 108° |
| 2026-05-04 12:55 | 31.45405 | -94.37771 | 33362 ft | 523 kts | 108° |
| 2026-05-04 12:56 | 31.42830 | -94.29816 | 33366 ft | 522 kts | 108° |
| 2026-05-04 12:56 | 31.40257 | -94.21885 | 33365 ft | 521 kts | 109° |
| 2026-05-04 12:57 | 31.37700 | -94.14024 | 33368 ft | 520 kts | 109° |
| 2026-05-04 12:57 | 31.35126 | -94.06126 | 33368 ft | 519 kts | 109° |
| 2026-05-04 12:58 | 31.32550 | -93.98245 | 33370 ft | 518 kts | 109° |
| 2026-05-04 12:58 | 31.29973 | -93.90378 | 33363 ft | 517 kts | 109° |
| 2026-05-04 12:59 | 31.27414 | -93.82584 | 33370 ft | 517 kts | 109° |
| 2026-05-04 12:59 | 31.24834 | -93.74746 | 33367 ft | 516 kts | 109° |
| 2026-05-04 13:00 | 31.22252 | -93.66919 | 33363 ft | 516 kts | 109° |
| 2026-05-04 13:00 | 31.19667 | -93.59103 | 33367 ft | 516 kts | 109° |
| 2026-05-04 13:01 | 31.17076 | -93.51288 | 33375 ft | 516 kts | 110° |
| 2026-05-04 13:01 | 31.14498 | -93.43532 | 33368 ft | 516 kts | 110° |
| 2026-05-04 13:02 | 31.11896 | -93.35719 | 33382 ft | 517 kts | 110° |
| 2026-05-04 13:02 | 31.09284 | -93.27893 | 33387 ft | 518 kts | 110° |
| 2026-05-04 13:03 | 31.06662 | -93.20058 | 33386 ft | 519 kts | 110° |
| 2026-05-04 13:03 | 31.04053 | -93.12280 | 33377 ft | 519 kts | 110° |
| 2026-05-04 13:04 | 31.01423 | -93.04457 | 33384 ft | 518 kts | 110° |
| 2026-05-04 13:04 | 30.98789 | -92.96641 | 33391 ft | 517 kts | 110° |
| 2026-05-04 13:05 | 30.96154 | -92.88844 | 33407 ft | 516 kts | 110° |
| 2026-05-04 13:05 | 30.93544 | -92.81136 | 33412 ft | 515 kts | 110° |
| 2026-05-04 13:06 | 30.90915 | -92.73388 | 33412 ft | 514 kts | 111° |
| 2026-05-04 13:06 | 30.88285 | -92.65658 | 33406 ft | 513 kts | 111° |
| 2026-05-04 13:07 | 30.85658 | -92.57952 | 33410 ft | 512 kts | 111° |
| 2026-05-04 13:07 | 30.83029 | -92.50257 | 33406 ft | 511 kts | 111° |
| 2026-05-04 13:08 | 30.80420 | -92.42639 | 33409 ft | 511 kts | 111° |
| 2026-05-04 13:08 | 30.77787 | -92.34967 | 33404 ft | 510 kts | 111° |
| 2026-05-04 13:09 | 30.75149 | -92.27299 | 33411 ft | 510 kts | 111° |
| 2026-05-04 13:09 | 30.72514 | -92.19656 | 33408 ft | 510 kts | 111° |
| 2026-05-04 13:10 | 30.69883 | -92.12044 | 33412 ft | 510 kts | 111° |
| 2026-05-04 13:10 | 30.67233 | -92.04392 | 33417 ft | 511 kts | 111° |
| 2026-05-04 13:11 | 30.64573 | -91.96792 | 33394 ft | 503 kts | 112° |
| 2026-05-04 13:11 | 30.61964 | -91.89393 | 33391 ft | 488 kts | 112° |
| 2026-05-04 13:12 | 30.59459 | -91.82204 | 33388 ft | 473 kts | 111° |
| 2026-05-04 13:12 | 30.57054 | -91.75291 | 33377 ft | 458 kts | 112° |
| 2026-05-04 13:13 | 30.54705 | -91.68562 | 33374 ft | 442 kts | 112° |
| 2026-05-04 13:13 | 30.52435 | -91.62081 | 33368 ft | 425 kts | 112° |
| 2026-05-04 13:14 | 30.50244 | -91.55843 | 33190 ft | 413 kts | 112° |
| 2026-05-04 13:14 | 30.49160 | -91.52761 | 32900 ft | 413 kts | 112° |
| 2026-05-04 13:14 | 30.48073 | -91.49675 | 32536 ft | 415 kts | 112° |
| 2026-05-04 13:14 | 30.46993 | -91.46610 | 32211 ft | 417 kts | 112° |
| 2026-05-04 13:15 | 30.45896 | -91.43500 | 31981 ft | 416 kts | 112° |
| 2026-05-04 13:15 | 30.44808 | -91.40408 | 31853 ft | 412 kts | 112° |
| 2026-05-04 13:15 | 30.43731 | -91.37354 | 31761 ft | 406 kts | 112° |
| 2026-05-04 13:15 | 30.42669 | -91.34345 | 31631 ft | 400 kts | 111° |
| 2026-05-04 13:16 | 30.41650 | -91.31369 | 31335 ft | 396 kts | 111° |
| 2026-05-04 13:16 | 30.40629 | -91.28399 | 30887 ft | 398 kts | 112° |
| 2026-05-04 13:16 | 30.39579 | -91.25418 | 30423 ft | 402 kts | 112° |
| 2026-05-04 13:16 | 30.38527 | -91.22469 | 30017 ft | 401 kts | 112° |
| 2026-05-04 13:17 | 30.37464 | -91.19495 | 29675 ft | 398 kts | 113° |
| 2026-05-04 13:17 | 30.36692 | -91.16456 | 29314 ft | 392 kts | 84° |
| 2026-05-04 13:17 | 30.37048 | -91.13385 | 28774 ft | 383 kts | 81° |
| 2026-05-04 13:17 | 30.37383 | -91.10470 | 29117 ft | 348 kts | 62° |
| 2026-05-04 13:18 | 30.38723 | -91.08530 | 27311 ft | 278 kts | 1° |
| 2026-05-04 13:18 | 30.39454 | -91.09335 | 20142 ft | 353 kts | 232° |
| 2026-05-04 13:18 | 30.36906 | -91.10118 | 17930 ft | 436 kts | 131° |
| 2026-05-04 13:18 | 30.37464 | -91.07573 | 12074 ft | 293 kts | 353° |
| 2026-05-04 13:19 | 30.36499 | -91.07366 | 4069 ft | 416 kts | 111° |
| 2026-05-04 13:19 | 30.37462 | -91.05406 | 5890 ft | 321 kts | 355° |
| 2026-05-04 13:19 | 30.38714 | -91.07358 | 3572 ft | 352 kts | 266° |
| 2026-05-04 13:19 | 30.37789 | -91.09028 | 6139 ft | 240 kts | 190° |
| 2026-05-04 13:20 | 30.37035 | -91.08197 | 2051 ft | 293 kts | 29° |
| 2026-05-04 13:20 | 30.38229 | -91.08617 | 210 ft | 45 kts | 7° |
| 2026-05-04 13:20 | 30.38258 | -91.08650 | 29 ft | 0 kts | 26° |